sensor_id;sensor_type;location;lat;lon;timestamp;P1;durP1;ratioP1;P2;durP2;ratioP2
5898;SDS011;2975;50.956;6.962;2023-05-21T00:02:08;16.70;;;10.10;;
5898;SDS011;2975;50.956;6.962;2023-05-21T00:04:38;14.77;;;9.70;;
5898;SDS011;2975;50.956;6.962;2023-05-21T00:07:07;12.77;;;9.13;;
5898;SDS011;2975;50.956;6.962;2023-05-21T00:09:33;14.37;;;9.37;;
5898;SDS011;2975;50.956;6.962;2023-05-21T00:11:59;14.67;;;9.50;;
5898;SDS011;2975;50.956;6.962;2023-05-21T00:14:25;13.90;;;10.43;;
5898;SDS011;2975;50.956;6.962;2023-05-21T00:16:50;17.43;;;10.53;;
5898;SDS011;2975;50.956;6.962;2023-05-21T00:19:16;15.30;;;9.53;;
5898;SDS011;2975;50.956;6.962;2023-05-21T00:21:42;14.13;;;9.13;;
5898;SDS011;2975;50.956;6.962;2023-05-21T00:24:09;13.53;;;9.10;;
5898;SDS011;2975;50.956;6.962;2023-05-21T00:26:35;16.50;;;10.13;;
5898;SDS011;2975;50.956;6.962;2023-05-21T00:29:01;14.07;;;9.17;;
5898;SDS011;2975;50.956;6.962;2023-05-21T00:31:27;13.90;;;9.23;;
5898;SDS011;2975;50.956;6.962;2023-05-21T00:33:52;14.60;;;9.40;;
5898;SDS011;2975;50.956;6.962;2023-05-21T00:36:18;13.87;;;9.33;;
5898;SDS011;2975;50.956;6.962;2023-05-21T00:38:47;13.40;;;9.10;;
5898;SDS011;2975;50.956;6.962;2023-05-21T00:41:16;15.73;;;9.97;;
5898;SDS011;2975;50.956;6.962;2023-05-21T00:43:42;10.77;;;8.37;;
5898;SDS011;2975;50.956;6.962;2023-05-21T00:46:16;16.40;;;9.60;;
5898;SDS011;2975;50.956;6.962;2023-05-21T00:48:43;14.90;;;9.70;;
5898;SDS011;2975;50.956;6.962;2023-05-21T00:51:10;14.10;;;9.30;;
5898;SDS011;2975;50.956;6.962;2023-05-21T00:53:37;11.03;;;8.63;;
5898;SDS011;2975;50.956;6.962;2023-05-21T00:56:03;16.30;;;9.57;;
5898;SDS011;2975;50.956;6.962;2023-05-21T00:58:30;13.30;;;10.23;;
5898;SDS011;2975;50.956;6.962;2023-05-21T01:00:57;14.03;;;9.50;;
5898;SDS011;2975;50.956;6.962;2023-05-21T01:03:27;12.77;;;9.30;;
5898;SDS011;2975;50.956;6.962;2023-05-21T01:06:02;16.07;;;9.67;;
5898;SDS011;2975;50.956;6.962;2023-05-21T01:08:29;13.60;;;9.87;;
5898;SDS011;2975;50.956;6.962;2023-05-21T01:10:55;16.23;;;9.87;;
5898;SDS011;2975;50.956;6.962;2023-05-21T01:13:21;13.50;;;9.80;;
5898;SDS011;2975;50.956;6.962;2023-05-21T01:15:48;13.07;;;9.20;;
5898;SDS011;2975;50.956;6.962;2023-05-21T01:18:15;13.53;;;9.97;;
5898;SDS011;2975;50.956;6.962;2023-05-21T01:20:41;12.47;;;8.53;;
5898;SDS011;2975;50.956;6.962;2023-05-21T01:23:11;12.70;;;8.87;;
5898;SDS011;2975;50.956;6.962;2023-05-21T01:25:41;15.10;;;9.40;;
5898;SDS011;2975;50.956;6.962;2023-05-21T01:28:07;14.33;;;9.80;;
5898;SDS011;2975;50.956;6.962;2023-05-21T01:30:32;12.50;;;8.93;;
5898;SDS011;2975;50.956;6.962;2023-05-21T01:33:18;18.07;;;9.60;;
5898;SDS011;2975;50.956;6.962;2023-05-21T01:36:05;13.87;;;9.17;;
5898;SDS011;2975;50.956;6.962;2023-05-21T01:41:06;15.90;;;9.97;;
5898;SDS011;2975;50.956;6.962;2023-05-21T01:43:36;15.30;;;9.47;;
5898;SDS011;2975;50.956;6.962;2023-05-21T01:46:03;12.70;;;9.03;;
5898;SDS011;2975;50.956;6.962;2023-05-21T01:48:31;13.30;;;8.80;;
5898;SDS011;2975;50.956;6.962;2023-05-21T01:51:00;12.23;;;9.07;;
5898;SDS011;2975;50.956;6.962;2023-05-21T01:53:27;12.10;;;9.00;;
5898;SDS011;2975;50.956;6.962;2023-05-21T01:55:53;12.87;;;9.00;;
5898;SDS011;2975;50.956;6.962;2023-05-21T01:58:19;13.23;;;9.03;;
5898;SDS011;2975;50.956;6.962;2023-05-21T02:00:46;16.07;;;9.10;;
5898;SDS011;2975;50.956;6.962;2023-05-21T02:03:15;13.13;;;9.47;;
5898;SDS011;2975;50.956;6.962;2023-05-21T02:05:41;14.83;;;9.83;;
5898;SDS011;2975;50.956;6.962;2023-05-21T02:08:07;16.40;;;8.90;;
5898;SDS011;2975;50.956;6.962;2023-05-21T02:10:33;12.67;;;8.90;;
5898;SDS011;2975;50.956;6.962;2023-05-21T02:12:59;13.40;;;8.77;;
5898;SDS011;2975;50.956;6.962;2023-05-21T02:15:25;13.80;;;9.27;;
5898;SDS011;2975;50.956;6.962;2023-05-21T02:17:50;12.03;;;9.03;;
5898;SDS011;2975;50.956;6.962;2023-05-21T02:20:17;11.23;;;8.60;;
5898;SDS011;2975;50.956;6.962;2023-05-21T02:22:43;10.70;;;8.57;;
5898;SDS011;2975;50.956;6.962;2023-05-21T02:25:11;11.30;;;8.80;;
5898;SDS011;2975;50.956;6.962;2023-05-21T02:27:39;11.67;;;8.00;;
5898;SDS011;2975;50.956;6.962;2023-05-21T02:30:07;10.03;;;7.70;;
5898;SDS011;2975;50.956;6.962;2023-05-21T02:32:34;13.37;;;8.73;;
5898;SDS011;2975;50.956;6.962;2023-05-21T02:35:00;19.77;;;9.33;;
5898;SDS011;2975;50.956;6.962;2023-05-21T02:37:27;13.90;;;8.43;;
5898;SDS011;2975;50.956;6.962;2023-05-21T02:39:54;10.00;;;7.20;;
5898;SDS011;2975;50.956;6.962;2023-05-21T02:42:22;11.77;;;7.83;;
5898;SDS011;2975;50.956;6.962;2023-05-21T02:44:49;11.43;;;8.13;;
5898;SDS011;2975;50.956;6.962;2023-05-21T02:47:15;12.33;;;7.47;;
5898;SDS011;2975;50.956;6.962;2023-05-21T02:49:41;10.77;;;7.40;;
5898;SDS011;2975;50.956;6.962;2023-05-21T02:52:07;12.47;;;7.67;;
5898;SDS011;2975;50.956;6.962;2023-05-21T02:54:32;13.63;;;7.73;;
5898;SDS011;2975;50.956;6.962;2023-05-21T02:56:58;9.90;;;7.73;;
5898;SDS011;2975;50.956;6.962;2023-05-21T02:59:24;11.13;;;7.87;;
5898;SDS011;2975;50.956;6.962;2023-05-21T03:01:49;10.67;;;7.40;;
5898;SDS011;2975;50.956;6.962;2023-05-21T03:04:15;11.57;;;7.90;;
5898;SDS011;2975;50.956;6.962;2023-05-21T03:06:42;9.53;;;7.17;;
5898;SDS011;2975;50.956;6.962;2023-05-21T03:09:11;10.50;;;7.13;;
5898;SDS011;2975;50.956;6.962;2023-05-21T03:11:37;10.67;;;8.03;;
5898;SDS011;2975;50.956;6.962;2023-05-21T03:14:02;13.00;;;7.93;;
5898;SDS011;2975;50.956;6.962;2023-05-21T03:16:28;11.33;;;7.70;;
5898;SDS011;2975;50.956;6.962;2023-05-21T03:18:58;11.60;;;7.80;;
5898;SDS011;2975;50.956;6.962;2023-05-21T03:21:24;11.37;;;7.60;;
5898;SDS011;2975;50.956;6.962;2023-05-21T03:23:50;10.87;;;7.13;;
5898;SDS011;2975;50.956;6.962;2023-05-21T03:26:16;10.50;;;7.60;;
5898;SDS011;2975;50.956;6.962;2023-05-21T03:28:42;10.67;;;7.73;;
5898;SDS011;2975;50.956;6.962;2023-05-21T03:31:08;11.07;;;8.00;;
5898;SDS011;2975;50.956;6.962;2023-05-21T03:33:33;13.57;;;8.70;;
5898;SDS011;2975;50.956;6.962;2023-05-21T03:35:59;10.43;;;8.00;;
5898;SDS011;2975;50.956;6.962;2023-05-21T03:38:25;11.27;;;7.57;;
5898;SDS011;2975;50.956;6.962;2023-05-21T03:40:50;10.63;;;7.93;;
5898;SDS011;2975;50.956;6.962;2023-05-21T03:43:16;11.30;;;7.70;;
5898;SDS011;2975;50.956;6.962;2023-05-21T03:45:41;12.43;;;7.17;;
5898;SDS011;2975;50.956;6.962;2023-05-21T03:48:07;12.60;;;8.20;;
5898;SDS011;2975;50.956;6.962;2023-05-21T03:50:32;11.17;;;7.57;;
5898;SDS011;2975;50.956;6.962;2023-05-21T03:52:58;11.40;;;6.50;;
5898;SDS011;2975;50.956;6.962;2023-05-21T03:55:23;12.07;;;7.77;;
5898;SDS011;2975;50.956;6.962;2023-05-21T03:57:49;12.70;;;7.97;;
5898;SDS011;2975;50.956;6.962;2023-05-21T04:00:15;10.60;;;7.87;;
5898;SDS011;2975;50.956;6.962;2023-05-21T04:02:40;10.47;;;7.47;;
5898;SDS011;2975;50.956;6.962;2023-05-21T04:05:06;11.07;;;7.43;;
5898;SDS011;2975;50.956;6.962;2023-05-21T04:07:32;12.53;;;7.43;;
5898;SDS011;2975;50.956;6.962;2023-05-21T04:09:57;12.03;;;8.07;;
5898;SDS011;2975;50.956;6.962;2023-05-21T04:12:23;12.03;;;8.00;;
5898;SDS011;2975;50.956;6.962;2023-05-21T04:14:49;13.77;;;7.80;;
5898;SDS011;2975;50.956;6.962;2023-05-21T04:17:15;15.23;;;7.57;;
5898;SDS011;2975;50.956;6.962;2023-05-21T04:19:43;11.00;;;7.37;;
5898;SDS011;2975;50.956;6.962;2023-05-21T04:22:09;10.30;;;8.10;;
5898;SDS011;2975;50.956;6.962;2023-05-21T04:24:36;13.27;;;8.23;;
5898;SDS011;2975;50.956;6.962;2023-05-21T04:27:02;12.07;;;8.17;;
5898;SDS011;2975;50.956;6.962;2023-05-21T04:29:29;11.20;;;7.90;;
5898;SDS011;2975;50.956;6.962;2023-05-21T04:31:55;13.60;;;7.80;;
5898;SDS011;2975;50.956;6.962;2023-05-21T04:34:21;10.63;;;7.37;;
5898;SDS011;2975;50.956;6.962;2023-05-21T04:36:47;9.87;;;7.07;;
5898;SDS011;2975;50.956;6.962;2023-05-21T04:39:12;13.37;;;8.00;;
5898;SDS011;2975;50.956;6.962;2023-05-21T04:41:38;9.23;;;7.83;;
5898;SDS011;2975;50.956;6.962;2023-05-21T04:44:07;13.40;;;8.00;;
5898;SDS011;2975;50.956;6.962;2023-05-21T04:46:34;9.73;;;7.17;;
5898;SDS011;2975;50.956;6.962;2023-05-21T04:49:03;9.90;;;7.30;;
5898;SDS011;2975;50.956;6.962;2023-05-21T04:51:29;9.83;;;7.40;;
5898;SDS011;2975;50.956;6.962;2023-05-21T04:53:55;8.93;;;7.37;;
5898;SDS011;2975;50.956;6.962;2023-05-21T04:56:22;13.60;;;7.37;;
5898;SDS011;2975;50.956;6.962;2023-05-21T04:58:50;9.53;;;6.87;;
5898;SDS011;2975;50.956;6.962;2023-05-21T05:01:18;10.27;;;6.80;;
5898;SDS011;2975;50.956;6.962;2023-05-21T05:03:46;9.20;;;7.17;;
5898;SDS011;2975;50.956;6.962;2023-05-21T05:06:12;11.67;;;7.63;;
5898;SDS011;2975;50.956;6.962;2023-05-21T05:08:37;8.47;;;6.63;;
5898;SDS011;2975;50.956;6.962;2023-05-21T05:11:03;8.27;;;6.83;;
5898;SDS011;2975;50.956;6.962;2023-05-21T05:13:29;8.33;;;6.53;;
5898;SDS011;2975;50.956;6.962;2023-05-21T05:15:54;11.67;;;7.60;;
5898;SDS011;2975;50.956;6.962;2023-05-21T05:18:21;8.23;;;6.73;;
5898;SDS011;2975;50.956;6.962;2023-05-21T05:20:47;9.80;;;6.10;;
5898;SDS011;2975;50.956;6.962;2023-05-21T05:23:13;9.13;;;6.60;;
5898;SDS011;2975;50.956;6.962;2023-05-21T05:25:38;10.77;;;7.00;;
5898;SDS011;2975;50.956;6.962;2023-05-21T05:28:04;11.77;;;7.13;;
5898;SDS011;2975;50.956;6.962;2023-05-21T05:30:30;9.00;;;6.30;;
5898;SDS011;2975;50.956;6.962;2023-05-21T05:32:55;8.90;;;7.03;;
5898;SDS011;2975;50.956;6.962;2023-05-21T05:35:21;9.77;;;6.80;;
5898;SDS011;2975;50.956;6.962;2023-05-21T05:37:46;9.83;;;6.40;;
5898;SDS011;2975;50.956;6.962;2023-05-21T05:40:12;9.13;;;6.90;;
5898;SDS011;2975;50.956;6.962;2023-05-21T05:42:37;9.90;;;6.23;;
5898;SDS011;2975;50.956;6.962;2023-05-21T05:45:03;6.77;;;6.07;;
5898;SDS011;2975;50.956;6.962;2023-05-21T05:47:29;9.13;;;6.23;;
5898;SDS011;2975;50.956;6.962;2023-05-21T05:49:55;8.60;;;5.57;;
5898;SDS011;2975;50.956;6.962;2023-05-21T05:52:20;10.00;;;6.10;;
5898;SDS011;2975;50.956;6.962;2023-05-21T05:54:46;10.20;;;7.30;;
5898;SDS011;2975;50.956;6.962;2023-05-21T05:57:12;9.90;;;6.83;;
5898;SDS011;2975;50.956;6.962;2023-05-21T05:59:37;9.57;;;6.60;;
5898;SDS011;2975;50.956;6.962;2023-05-21T06:02:03;8.63;;;6.37;;
5898;SDS011;2975;50.956;6.962;2023-05-21T06:04:29;10.00;;;6.40;;
5898;SDS011;2975;50.956;6.962;2023-05-21T06:06:55;9.70;;;6.47;;
5898;SDS011;2975;50.956;6.962;2023-05-21T06:09:24;7.53;;;5.87;;
5898;SDS011;2975;50.956;6.962;2023-05-21T06:11:50;8.10;;;5.53;;
5898;SDS011;2975;50.956;6.962;2023-05-21T06:14:16;9.50;;;7.40;;
5898;SDS011;2975;50.956;6.962;2023-05-21T06:16:41;9.10;;;6.60;;
5898;SDS011;2975;50.956;6.962;2023-05-21T06:19:07;9.03;;;6.50;;
5898;SDS011;2975;50.956;6.962;2023-05-21T06:21:33;9.60;;;6.77;;
5898;SDS011;2975;50.956;6.962;2023-05-21T06:23:58;9.13;;;6.73;;
5898;SDS011;2975;50.956;6.962;2023-05-21T06:26:24;10.03;;;6.83;;
5898;SDS011;2975;50.956;6.962;2023-05-21T06:28:50;8.17;;;6.70;;
5898;SDS011;2975;50.956;6.962;2023-05-21T06:31:15;8.93;;;6.53;;
5898;SDS011;2975;50.956;6.962;2023-05-21T06:33:41;12.37;;;6.50;;
5898;SDS011;2975;50.956;6.962;2023-05-21T06:36:07;9.53;;;6.70;;
5898;SDS011;2975;50.956;6.962;2023-05-21T06:38:33;9.97;;;7.13;;
5898;SDS011;2975;50.956;6.962;2023-05-21T06:40:58;10.87;;;6.83;;
5898;SDS011;2975;50.956;6.962;2023-05-21T06:43:24;7.33;;;6.40;;
5898;SDS011;2975;50.956;6.962;2023-05-21T06:45:50;13.23;;;7.97;;
5898;SDS011;2975;50.956;6.962;2023-05-21T06:48:15;10.13;;;6.93;;
5898;SDS011;2975;50.956;6.962;2023-05-21T06:50:41;8.70;;;6.17;;
5898;SDS011;2975;50.956;6.962;2023-05-21T06:53:07;8.80;;;6.90;;
5898;SDS011;2975;50.956;6.962;2023-05-21T06:55:33;9.23;;;6.70;;
5898;SDS011;2975;50.956;6.962;2023-05-21T06:57:58;9.93;;;7.03;;
5898;SDS011;2975;50.956;6.962;2023-05-21T07:00:24;10.60;;;6.47;;
5898;SDS011;2975;50.956;6.962;2023-05-21T07:02:50;7.43;;;6.17;;
5898;SDS011;2975;50.956;6.962;2023-05-21T07:05:15;7.70;;;6.70;;
5898;SDS011;2975;50.956;6.962;2023-05-21T07:07:41;10.50;;;8.23;;
5898;SDS011;2975;50.956;6.962;2023-05-21T07:10:07;10.17;;;7.27;;
5898;SDS011;2975;50.956;6.962;2023-05-21T07:12:33;11.47;;;6.83;;
5898;SDS011;2975;50.956;6.962;2023-05-21T07:14:59;9.67;;;6.70;;
5898;SDS011;2975;50.956;6.962;2023-05-21T07:17:24;9.57;;;7.53;;
5898;SDS011;2975;50.956;6.962;2023-05-21T07:19:50;9.80;;;7.53;;
5898;SDS011;2975;50.956;6.962;2023-05-21T07:22:15;9.30;;;7.27;;
5898;SDS011;2975;50.956;6.962;2023-05-21T07:24:41;10.53;;;7.63;;
5898;SDS011;2975;50.956;6.962;2023-05-21T07:27:07;9.90;;;7.50;;
5898;SDS011;2975;50.956;6.962;2023-05-21T07:29:32;10.00;;;7.77;;
5898;SDS011;2975;50.956;6.962;2023-05-21T07:31:58;9.23;;;7.23;;
5898;SDS011;2975;50.956;6.962;2023-05-21T07:34:24;9.20;;;7.07;;
5898;SDS011;2975;50.956;6.962;2023-05-21T07:36:50;9.60;;;7.60;;
5898;SDS011;2975;50.956;6.962;2023-05-21T07:39:15;9.10;;;6.97;;
5898;SDS011;2975;50.956;6.962;2023-05-21T07:41:41;9.97;;;7.03;;
5898;SDS011;2975;50.956;6.962;2023-05-21T07:44:07;7.73;;;6.93;;
5898;SDS011;2975;50.956;6.962;2023-05-21T07:46:32;8.83;;;7.70;;
5898;SDS011;2975;50.956;6.962;2023-05-21T07:48:58;11.30;;;7.07;;
5898;SDS011;2975;50.956;6.962;2023-05-21T07:51:24;9.83;;;7.10;;
5898;SDS011;2975;50.956;6.962;2023-05-21T07:53:50;8.70;;;7.03;;
5898;SDS011;2975;50.956;6.962;2023-05-21T07:56:16;9.07;;;6.90;;
5898;SDS011;2975;50.956;6.962;2023-05-21T07:58:41;9.17;;;6.77;;
5898;SDS011;2975;50.956;6.962;2023-05-21T08:01:10;7.00;;;6.27;;
5898;SDS011;2975;50.956;6.962;2023-05-21T08:03:36;7.93;;;7.00;;
5898;SDS011;2975;50.956;6.962;2023-05-21T08:06:02;7.83;;;6.93;;
5898;SDS011;2975;50.956;6.962;2023-05-21T08:08:27;7.47;;;6.67;;
5898;SDS011;2975;50.956;6.962;2023-05-21T08:10:53;8.23;;;6.67;;
5898;SDS011;2975;50.956;6.962;2023-05-21T08:13:19;9.97;;;7.37;;
5898;SDS011;2975;50.956;6.962;2023-05-21T08:15:45;8.60;;;7.57;;
5898;SDS011;2975;50.956;6.962;2023-05-21T08:18:11;14.13;;;7.10;;
5898;SDS011;2975;50.956;6.962;2023-05-21T08:20:36;9.87;;;6.93;;
5898;SDS011;2975;50.956;6.962;2023-05-21T08:23:02;14.25;;;7.82;;
5898;SDS011;2975;50.956;6.962;2023-05-21T08:25:28;8.97;;;7.17;;
5898;SDS011;2975;50.956;6.962;2023-05-21T08:27:54;9.00;;;6.63;;
5898;SDS011;2975;50.956;6.962;2023-05-21T08:30:20;8.63;;;6.87;;
5898;SDS011;2975;50.956;6.962;2023-05-21T08:32:46;9.63;;;7.17;;
5898;SDS011;2975;50.956;6.962;2023-05-21T08:35:12;9.20;;;7.10;;
5898;SDS011;2975;50.956;6.962;2023-05-21T08:37:38;10.17;;;7.50;;
5898;SDS011;2975;50.956;6.962;2023-05-21T08:40:04;9.27;;;7.43;;
5898;SDS011;2975;50.956;6.962;2023-05-21T08:42:43;8.47;;;6.77;;
5898;SDS011;2975;50.956;6.962;2023-05-21T08:45:11;8.87;;;6.83;;
5898;SDS011;2975;50.956;6.962;2023-05-21T08:47:39;8.77;;;7.10;;
5898;SDS011;2975;50.956;6.962;2023-05-21T08:50:08;10.00;;;7.03;;
5898;SDS011;2975;50.956;6.962;2023-05-21T08:52:35;9.27;;;8.00;;
5898;SDS011;2975;50.956;6.962;2023-05-21T08:55:02;12.67;;;7.33;;
5898;SDS011;2975;50.956;6.962;2023-05-21T08:57:28;13.63;;;8.37;;
5898;SDS011;2975;50.956;6.962;2023-05-21T08:59:55;9.27;;;7.40;;
5898;SDS011;2975;50.956;6.962;2023-05-21T09:02:21;13.23;;;8.23;;
5898;SDS011;2975;50.956;6.962;2023-05-21T09:04:49;12.13;;;7.43;;
5898;SDS011;2975;50.956;6.962;2023-05-21T09:07:21;9.53;;;7.90;;
5898;SDS011;2975;50.956;6.962;2023-05-21T09:12:27;10.37;;;7.57;;
5898;SDS011;2975;50.956;6.962;2023-05-21T09:14:53;9.27;;;6.90;;
5898;SDS011;2975;50.956;6.962;2023-05-21T09:17:22;9.90;;;7.20;;
5898;SDS011;2975;50.956;6.962;2023-05-21T09:22:48;12.10;;;8.07;;
5898;SDS011;2975;50.956;6.962;2023-05-21T09:25:15;13.60;;;7.87;;
5898;SDS011;2975;50.956;6.962;2023-05-21T09:27:47;9.50;;;7.00;;
5898;SDS011;2975;50.956;6.962;2023-05-21T09:30:14;9.87;;;7.43;;
5898;SDS011;2975;50.956;6.962;2023-05-21T09:32:41;10.37;;;7.27;;
5898;SDS011;2975;50.956;6.962;2023-05-21T09:35:11;9.07;;;7.50;;
5898;SDS011;2975;50.956;6.962;2023-05-21T09:42:46;7.87;;;7.07;;
5898;SDS011;2975;50.956;6.962;2023-05-21T09:45:20;12.37;;;7.67;;
5898;SDS011;2975;50.956;6.962;2023-05-21T09:47:47;10.17;;;7.67;;
5898;SDS011;2975;50.956;6.962;2023-05-21T09:50:17;11.52;;;7.43;;
5898;SDS011;2975;50.956;6.962;2023-05-21T09:52:51;11.30;;;7.40;;
5898;SDS011;2975;50.956;6.962;2023-05-21T09:55:22;11.50;;;8.60;;
5898;SDS011;2975;50.956;6.962;2023-05-21T09:57:50;15.60;;;8.00;;
5898;SDS011;2975;50.956;6.962;2023-05-21T10:00:18;10.00;;;8.43;;
5898;SDS011;2975;50.956;6.962;2023-05-21T10:02:55;11.03;;;8.20;;
5898;SDS011;2975;50.956;6.962;2023-05-21T10:05:23;10.88;;;8.50;;
5898;SDS011;2975;50.956;6.962;2023-05-21T10:07:57;11.55;;;8.38;;
5898;SDS011;2975;50.956;6.962;2023-05-21T10:10:26;10.80;;;7.90;;
5898;SDS011;2975;50.956;6.962;2023-05-21T10:12:54;10.77;;;7.53;;
5898;SDS011;2975;50.956;6.962;2023-05-21T10:15:23;8.40;;;7.13;;
5898;SDS011;2975;50.956;6.962;2023-05-21T10:17:51;12.40;;;8.77;;
5898;SDS011;2975;50.956;6.962;2023-05-21T10:20:20;14.30;;;8.70;;
5898;SDS011;2975;50.956;6.962;2023-05-21T10:22:46;10.67;;;8.23;;
5898;SDS011;2975;50.956;6.962;2023-05-21T10:25:12;12.33;;;7.67;;
5898;SDS011;2975;50.956;6.962;2023-05-21T10:27:38;10.00;;;8.03;;
5898;SDS011;2975;50.956;6.962;2023-05-21T10:30:04;12.40;;;8.90;;
5898;SDS011;2975;50.956;6.962;2023-05-21T10:32:31;10.75;;;8.18;;
5898;SDS011;2975;50.956;6.962;2023-05-21T10:34:57;9.80;;;7.47;;
5898;SDS011;2975;50.956;6.962;2023-05-21T10:37:23;9.47;;;7.83;;
5898;SDS011;2975;50.956;6.962;2023-05-21T10:39:53;9.88;;;8.02;;
5898;SDS011;2975;50.956;6.962;2023-05-21T10:53:15;11.48;;;9.13;;
5898;SDS011;2975;50.956;6.962;2023-05-21T11:01:39;8.85;;;8.05;;
5898;SDS011;2975;50.956;6.962;2023-05-21T11:04:05;11.07;;;8.63;;
5898;SDS011;2975;50.956;6.962;2023-05-21T11:06:31;11.63;;;7.82;;
5898;SDS011;2975;50.956;6.962;2023-05-21T11:09:10;12.23;;;9.40;;
5898;SDS011;2975;50.956;6.962;2023-05-21T11:11:55;9.00;;;8.05;;
5898;SDS011;2975;50.956;6.962;2023-05-21T11:14:25;12.23;;;8.50;;
5898;SDS011;2975;50.956;6.962;2023-05-21T11:19:35;10.77;;;9.05;;
5898;SDS011;2975;50.956;6.962;2023-05-21T11:22:06;10.05;;;8.52;;
5898;SDS011;2975;50.956;6.962;2023-05-21T11:24:35;10.70;;;8.07;;
5898;SDS011;2975;50.956;6.962;2023-05-21T11:27:02;10.85;;;8.77;;
5898;SDS011;2975;50.956;6.962;2023-05-21T11:29:46;8.68;;;7.78;;
5898;SDS011;2975;50.956;6.962;2023-05-21T11:32:13;11.70;;;7.93;;
5898;SDS011;2975;50.956;6.962;2023-05-21T11:34:41;12.20;;;8.75;;
5898;SDS011;2975;50.956;6.962;2023-05-21T11:39:53;12.27;;;8.57;;
5898;SDS011;2975;50.956;6.962;2023-05-21T11:42:32;10.30;;;8.48;;
5898;SDS011;2975;50.956;6.962;2023-05-21T11:44:59;10.85;;;8.82;;
5898;SDS011;2975;50.956;6.962;2023-05-21T11:47:29;11.90;;;8.48;;
5898;SDS011;2975;50.956;6.962;2023-05-21T11:49:56;9.85;;;8.15;;
5898;SDS011;2975;50.956;6.962;2023-05-21T11:52:23;12.35;;;8.18;;
5898;SDS011;2975;50.956;6.962;2023-05-21T11:54:51;11.60;;;9.23;;
5898;SDS011;2975;50.956;6.962;2023-05-21T11:57:21;10.77;;;8.43;;
5898;SDS011;2975;50.956;6.962;2023-05-21T11:59:50;10.52;;;8.57;;
5898;SDS011;2975;50.956;6.962;2023-05-21T12:02:17;11.90;;;9.23;;
5898;SDS011;2975;50.956;6.962;2023-05-21T12:04:48;13.27;;;9.13;;
5898;SDS011;2975;50.956;6.962;2023-05-21T12:07:15;10.05;;;8.88;;
5898;SDS011;2975;50.956;6.962;2023-05-21T12:09:49;10.00;;;8.90;;
5898;SDS011;2975;50.956;6.962;2023-05-21T12:12:24;10.73;;;8.63;;
5898;SDS011;2975;50.956;6.962;2023-05-21T12:14:51;10.07;;;8.45;;
5898;SDS011;2975;50.956;6.962;2023-05-21T12:17:18;9.95;;;8.50;;
5898;SDS011;2975;50.956;6.962;2023-05-21T12:19:49;11.63;;;9.20;;
5898;SDS011;2975;50.956;6.962;2023-05-21T12:22:17;14.73;;;8.82;;
5898;SDS011;2975;50.956;6.962;2023-05-21T12:24:43;11.65;;;8.75;;
5898;SDS011;2975;50.956;6.962;2023-05-21T12:27:09;9.85;;;8.85;;
5898;SDS011;2975;50.956;6.962;2023-05-21T12:29:40;11.02;;;9.68;;
5898;SDS011;2975;50.956;6.962;2023-05-21T12:32:08;11.18;;;8.73;;
5898;SDS011;2975;50.956;6.962;2023-05-21T12:37:11;13.13;;;9.18;;
5898;SDS011;2975;50.956;6.962;2023-05-21T12:39:42;9.85;;;8.82;;
5898;SDS011;2975;50.956;6.962;2023-05-21T12:42:08;11.05;;;8.90;;
5898;SDS011;2975;50.956;6.962;2023-05-21T12:44:34;10.35;;;7.70;;
5898;SDS011;2975;50.956;6.962;2023-05-21T12:47:02;9.48;;;8.45;;
5898;SDS011;2975;50.956;6.962;2023-05-21T12:49:44;12.52;;;8.30;;
5898;SDS011;2975;50.956;6.962;2023-05-21T12:52:13;11.18;;;8.82;;
5898;SDS011;2975;50.956;6.962;2023-05-21T12:54:43;9.05;;;8.13;;
5898;SDS011;2975;50.956;6.962;2023-05-21T12:57:14;10.73;;;8.20;;
5898;SDS011;2975;50.956;6.962;2023-05-21T12:59:53;9.55;;;8.55;;
5898;SDS011;2975;50.956;6.962;2023-05-21T13:02:28;12.25;;;8.77;;
5898;SDS011;2975;50.956;6.962;2023-05-21T13:05:03;13.02;;;8.82;;
5898;SDS011;2975;50.956;6.962;2023-05-21T13:07:31;9.93;;;8.23;;
5898;SDS011;2975;50.956;6.962;2023-05-21T13:09:58;9.43;;;8.27;;
5898;SDS011;2975;50.956;6.962;2023-05-21T13:12:25;11.20;;;8.52;;
5898;SDS011;2975;50.956;6.962;2023-05-21T13:14:56;10.65;;;9.10;;
5898;SDS011;2975;50.956;6.962;2023-05-21T13:17:23;10.02;;;8.45;;
5898;SDS011;2975;50.956;6.962;2023-05-21T13:22:36;12.40;;;9.40;;
5898;SDS011;2975;50.956;6.962;2023-05-21T13:25:07;9.02;;;8.05;;
5898;SDS011;2975;50.956;6.962;2023-05-21T13:27:33;9.88;;;8.57;;
5898;SDS011;2975;50.956;6.962;2023-05-21T13:29:59;9.95;;;8.80;;
5898;SDS011;2975;50.956;6.962;2023-05-21T13:32:24;10.13;;;8.55;;
5898;SDS011;2975;50.956;6.962;2023-05-21T13:34:50;10.85;;;8.38;;
5898;SDS011;2975;50.956;6.962;2023-05-21T13:37:16;12.27;;;9.13;;
5898;SDS011;2975;50.956;6.962;2023-05-21T13:39:41;9.68;;;8.40;;
5898;SDS011;2975;50.956;6.962;2023-05-21T13:42:07;14.40;;;8.77;;
5898;SDS011;2975;50.956;6.962;2023-05-21T13:44:33;11.15;;;8.15;;
5898;SDS011;2975;50.956;6.962;2023-05-21T13:47:01;11.57;;;8.48;;
5898;SDS011;2975;50.956;6.962;2023-05-21T13:49:27;12.57;;;9.18;;
5898;SDS011;2975;50.956;6.962;2023-05-21T13:51:52;9.38;;;8.38;;
5898;SDS011;2975;50.956;6.962;2023-05-21T13:54:18;11.50;;;9.07;;
5898;SDS011;2975;50.956;6.962;2023-05-21T13:56:43;13.23;;;8.63;;
5898;SDS011;2975;50.956;6.962;2023-05-21T13:59:09;11.55;;;8.35;;
5898;SDS011;2975;50.956;6.962;2023-05-21T14:01:35;10.50;;;8.02;;
5898;SDS011;2975;50.956;6.962;2023-05-21T14:04:00;11.48;;;8.07;;
5898;SDS011;2975;50.956;6.962;2023-05-21T14:06:33;9.77;;;8.38;;
5898;SDS011;2975;50.956;6.962;2023-05-21T14:08:59;10.10;;;8.52;;
5898;SDS011;2975;50.956;6.962;2023-05-21T14:11:25;9.95;;;8.27;;
5898;SDS011;2975;50.956;6.962;2023-05-21T14:13:51;8.93;;;7.93;;
5898;SDS011;2975;50.956;6.962;2023-05-21T14:16:17;11.30;;;8.18;;
5898;SDS011;2975;50.956;6.962;2023-05-21T14:18:43;12.13;;;8.30;;
5898;SDS011;2975;50.956;6.962;2023-05-21T14:21:08;10.25;;;8.48;;
5898;SDS011;2975;50.956;6.962;2023-05-21T14:23:34;10.25;;;8.98;;
5898;SDS011;2975;50.956;6.962;2023-05-21T14:26:00;12.43;;;8.57;;
5898;SDS011;2975;50.956;6.962;2023-05-21T14:28:25;10.65;;;8.50;;
5898;SDS011;2975;50.956;6.962;2023-05-21T14:30:51;10.25;;;8.07;;
5898;SDS011;2975;50.956;6.962;2023-05-21T14:33:17;10.50;;;8.10;;
5898;SDS011;2975;50.956;6.962;2023-05-21T14:35:42;12.85;;;8.90;;
5898;SDS011;2975;50.956;6.962;2023-05-21T14:38:08;11.60;;;8.68;;
5898;SDS011;2975;50.956;6.962;2023-05-21T14:40:34;11.57;;;7.95;;
5898;SDS011;2975;50.956;6.962;2023-05-21T14:43:00;9.85;;;7.95;;
5898;SDS011;2975;50.956;6.962;2023-05-21T14:45:26;14.82;;;9.48;;
5898;SDS011;2975;50.956;6.962;2023-05-21T14:47:52;12.55;;;9.43;;
5898;SDS011;2975;50.956;6.962;2023-05-21T14:50:17;12.43;;;8.65;;
5898;SDS011;2975;50.956;6.962;2023-05-21T14:52:44;10.80;;;8.70;;
5898;SDS011;2975;50.956;6.962;2023-05-21T14:55:10;10.32;;;8.50;;
5898;SDS011;2975;50.956;6.962;2023-05-21T14:57:36;12.65;;;9.65;;
5898;SDS011;2975;50.956;6.962;2023-05-21T15:00:03;9.77;;;8.23;;
5898;SDS011;2975;50.956;6.962;2023-05-21T15:02:29;10.40;;;8.70;;
5898;SDS011;2975;50.956;6.962;2023-05-21T15:04:55;11.27;;;8.75;;
5898;SDS011;2975;50.956;6.962;2023-05-21T15:07:20;11.88;;;8.88;;
5898;SDS011;2975;50.956;6.962;2023-05-21T15:09:46;13.00;;;8.43;;
5898;SDS011;2975;50.956;6.962;2023-05-21T15:12:11;10.23;;;9.10;;
5898;SDS011;2975;50.956;6.962;2023-05-21T15:14:37;11.18;;;8.63;;
5898;SDS011;2975;50.956;6.962;2023-05-21T15:17:03;10.70;;;8.77;;
5898;SDS011;2975;50.956;6.962;2023-05-21T15:19:29;11.38;;;8.55;;
5898;SDS011;2975;50.956;6.962;2023-05-21T15:21:54;11.13;;;8.50;;
5898;SDS011;2975;50.956;6.962;2023-05-21T15:24:20;11.25;;;8.85;;
5898;SDS011;2975;50.956;6.962;2023-05-21T15:26:46;13.32;;;9.23;;
5898;SDS011;2975;50.956;6.962;2023-05-21T15:29:13;10.55;;;8.45;;
5898;SDS011;2975;50.956;6.962;2023-05-21T15:31:38;11.77;;;9.50;;
5898;SDS011;2975;50.956;6.962;2023-05-21T15:34:04;12.52;;;9.13;;
5898;SDS011;2975;50.956;6.962;2023-05-21T15:36:30;9.50;;;8.55;;
5898;SDS011;2975;50.956;6.962;2023-05-21T15:38:55;12.48;;;10.02;;
5898;SDS011;2975;50.956;6.962;2023-05-21T15:41:21;11.45;;;9.70;;
5898;SDS011;2975;50.956;6.962;2023-05-21T15:43:47;10.80;;;9.07;;
5898;SDS011;2975;50.956;6.962;2023-05-21T15:46:12;11.18;;;8.70;;